createdAt,value
2017-09-16T00:01:28.475Z,0
2017-09-16T00:06:33.875Z,0
2017-09-16T00:11:39.600Z,0
2017-09-16T00:16:44.992Z,0
2017-09-16T00:21:50.052Z,0
2017-09-16T00:26:55.448Z,0
2017-09-16T00:32:01.176Z,0
2017-09-16T00:37:06.240Z,0
2017-09-16T00:42:11.296Z,0
2017-09-16T00:47:16.689Z,0
2017-09-16T00:52:22.421Z,0
2017-09-16T00:57:27.480Z,0
2017-09-16T01:02:32.873Z,0
2017-09-16T01:07:38.269Z,0
2017-09-16T01:12:43.662Z,0
2017-09-16T01:17:48.731Z,0
2017-09-16T01:22:53.447Z,0
2017-09-16T01:27:59.178Z,0
2017-09-16T01:33:04.572Z,0
2017-09-16T01:38:10.301Z,0
2017-09-16T01:43:15.359Z,0
2017-09-16T01:48:21.089Z,0
2017-09-16T01:53:26.487Z,0
2017-09-16T01:58:30.877Z,0
2017-09-16T02:03:35.596Z,0
2017-09-16T02:08:40.991Z,0
2017-09-16T02:13:46.050Z,0
2017-09-16T02:18:51.780Z,0
2017-09-16T02:23:56.834Z,0
2017-09-16T02:29:02.232Z,0
2017-09-16T02:34:07.627Z,0
2017-09-16T02:39:12.688Z,0
2017-09-16T02:44:17.750Z,0
2017-09-16T02:49:22.474Z,0
2017-09-16T02:54:26.531Z,0
2017-09-16T02:59:31.928Z,0
2017-09-16T03:04:37.654Z,0
2017-09-16T03:09:42.374Z,0
2017-09-16T03:14:48.109Z,0
2017-09-16T03:19:53.836Z,0
2017-09-16T03:24:58.564Z,0
2017-09-16T03:30:03.957Z,0
2017-09-16T03:35:10.018Z,0
2017-09-16T03:40:15.411Z,0
2017-09-16T03:45:20.470Z,0
2017-09-16T03:50:25.191Z,0
2017-09-16T03:55:30.582Z,0
2017-09-16T04:00:35.974Z,0
2017-09-16T04:05:41.370Z,0
2017-09-16T04:10:45.757Z,0
2017-09-16T04:15:51.146Z,0
2017-09-16T04:20:55.871Z,0
2017-09-16T04:26:00.929Z,0
2017-09-16T04:31:06.322Z,0
2017-09-16T04:36:11.381Z,0
2017-09-16T04:41:16.101Z,0
2017-09-16T04:46:21.830Z,0
2017-09-16T04:51:27.226Z,0
2017-09-16T04:56:32.618Z,0
2017-09-16T05:01:38.012Z,0
2017-09-16T05:06:43.742Z,0
2017-09-16T05:11:49.133Z,0
2017-09-16T05:16:54.190Z,0
2017-09-16T05:21:59.248Z,0
2017-09-16T05:27:03.972Z,0
2017-09-16T05:32:09.703Z,0
2017-09-16T05:37:14.762Z,0
2017-09-16T05:42:19.489Z,0
2017-09-16T05:47:24.546Z,0
2017-09-16T05:52:29.269Z,0
2017-09-16T05:57:34.657Z,0
2017-09-16T06:02:39.716Z,0
2017-09-16T06:07:45.449Z,0
2017-09-16T06:12:50.504Z,0
2017-09-16T06:17:55.236Z,0
2017-09-16T06:23:00.294Z,0
2017-09-16T06:28:06.026Z,1
2017-09-16T06:33:10.751Z,1
2017-09-16T06:38:15.811Z,1
2017-09-16T06:43:20.209Z,1
2017-09-16T06:48:25.603Z,1
2017-09-16T06:53:30.667Z,1
2017-09-16T06:58:36.089Z,1
2017-09-16T07:03:41.125Z,1
2017-09-16T07:08:46.184Z,1
2017-09-16T07:13:51.583Z,1
2017-09-16T07:18:56.315Z,1
2017-09-16T07:24:01.713Z,2
2017-09-16T07:29:06.437Z,2
2017-09-16T07:34:11.993Z,3
2017-09-16T07:39:17.166Z,5
2017-09-16T07:44:22.561Z,6
2017-09-16T07:49:27.958Z,5
2017-09-16T07:54:33.357Z,6
2017-09-16T07:59:38.413Z,4
2017-09-16T08:04:43.805Z,5
2017-09-16T08:09:49.537Z,5
2017-09-16T08:14:54.932Z,3
2017-09-16T08:19:59.660Z,3
2017-09-16T08:25:04.385Z,4
2017-09-16T08:30:10.119Z,3
2017-09-16T08:35:15.511Z,3
2017-09-16T08:40:21.238Z,3
2017-09-16T08:45:26.298Z,3
2017-09-16T08:50:32.378Z,9
2017-09-16T08:55:37.772Z,5
2017-09-16T09:00:42.499Z,4
2017-09-16T09:05:48.243Z,4
2017-09-16T09:10:53.641Z,3
2017-09-16T09:15:59.055Z,4
2017-09-16T09:21:04.114Z,2
2017-09-16T09:26:10.180Z,4
2017-09-16T09:31:15.576Z,3
2017-09-16T09:36:20.979Z,4
2017-09-16T09:41:26.378Z,4
2017-09-16T09:46:32.110Z,3
2017-09-16T09:51:37.168Z,3
2017-09-16T09:56:42.228Z,3
2017-09-16T10:01:47.952Z,4
2017-09-16T10:06:53.015Z,3
2017-09-16T10:11:58.076Z,3
2017-09-16T10:17:03.813Z,5
2017-09-16T10:22:08.873Z,5
2017-09-16T10:27:14.262Z,5
2017-09-16T10:32:19.329Z,5
2017-09-16T10:37:24.395Z,6
2017-09-16T10:42:28.781Z,4
2017-09-16T10:47:33.172Z,5
2017-09-16T10:52:37.906Z,6
2017-09-16T10:57:43.654Z,5
2017-09-16T11:02:49.043Z,3
2017-09-16T11:07:54.452Z,4
2017-09-16T11:12:58.847Z,3
2017-09-16T11:18:04.576Z,3
2017-09-16T11:23:10.319Z,3
2017-09-16T11:28:16.057Z,3
2017-09-16T11:33:21.120Z,4
2017-09-16T11:38:26.182Z,3
2017-09-16T11:43:31.250Z,3
2017-09-16T11:48:36.643Z,3
2017-09-16T11:53:41.704Z,4
2017-09-16T11:58:47.102Z,5
2017-09-16T12:03:52.184Z,4
2017-09-16T12:08:57.916Z,4
2017-09-16T12:14:03.310Z,4
2017-09-16T12:19:09.377Z,4
2017-09-16T12:24:14.435Z,1
2017-09-16T12:29:20.173Z,1
2017-09-16T12:34:25.566Z,4
2017-09-16T12:39:30.631Z,3
2017-09-16T12:44:35.355Z,2
2017-09-16T12:49:40.752Z,1
2017-09-16T12:54:46.163Z,1
2017-09-16T12:59:52.233Z,1
2017-09-16T13:04:57.967Z,1
2017-09-16T13:10:02.702Z,0
2017-09-16T13:15:08.434Z,1
2017-09-16T13:20:14.160Z,1
2017-09-16T13:25:19.889Z,1
2017-09-16T13:30:25.285Z,2
2017-09-16T13:35:30.684Z,2
2017-09-16T13:40:35.410Z,1
2017-09-16T13:45:41.142Z,1
2017-09-16T13:50:46.203Z,1
2017-09-16T13:55:51.601Z,2
2017-09-16T14:00:56.670Z,2
2017-09-16T14:06:01.726Z,2
2017-09-16T14:11:07.518Z,2
2017-09-16T14:16:12.577Z,2
2017-09-16T14:21:17.657Z,2
2017-09-16T14:26:22.717Z,3
2017-09-16T14:31:28.121Z,3
2017-09-16T14:36:33.849Z,3
2017-09-16T14:41:39.599Z,3
2017-09-16T14:46:44.662Z,3
2017-09-16T14:51:49.723Z,2
2017-09-16T14:56:55.116Z,3
2017-09-16T15:02:01.186Z,3
2017-09-16T15:07:06.279Z,3
2017-09-16T15:12:11.342Z,2
2017-09-16T15:17:16.737Z,2
2017-09-16T15:22:22.134Z,2
2017-09-16T15:27:26.527Z,2
2017-09-16T15:32:31.600Z,2
2017-09-16T15:37:36.663Z,2
2017-09-16T15:42:41.387Z,2
2017-09-16T15:47:46.886Z,1
2017-09-16T15:52:52.282Z,1
2017-09-16T15:57:57.678Z,1
2017-09-16T16:03:02.404Z,0
2017-09-16T16:08:07.797Z,1
2017-09-16T16:13:13.528Z,1
2017-09-16T16:18:18.593Z,1
2017-09-16T16:23:23.995Z,0
2017-09-16T16:28:28.390Z,1
2017-09-16T16:33:33.843Z,0
2017-09-16T16:38:38.573Z,0
2017-09-16T16:43:43.966Z,0
2017-09-16T16:48:49.027Z,0
2017-09-16T16:53:54.766Z,0
2017-09-16T16:59:00.494Z,0
2017-09-16T17:04:05.559Z,0
2017-09-16T17:09:10.617Z,0
2017-09-16T17:14:16.011Z,0
2017-09-16T17:19:21.087Z,0
2017-09-16T17:24:26.150Z,0
2017-09-16T17:29:31.216Z,0
2017-09-16T17:34:36.607Z,0
2017-09-16T17:39:41.340Z,0
2017-09-16T17:44:46.089Z,0
2017-09-16T17:49:51.818Z,0
2017-09-16T17:54:56.540Z,0
2017-09-16T18:00:01.934Z,0
2017-09-16T18:05:06.994Z,0
2017-09-16T18:10:12.726Z,0
2017-09-16T18:15:17.120Z,0
2017-09-16T18:20:22.846Z,0
2017-09-16T18:25:28.589Z,0
2017-09-16T18:30:34.655Z,0
2017-09-16T18:35:40.398Z,0
2017-09-16T18:40:45.479Z,0
2017-09-16T18:45:49.874Z,0
2017-09-16T18:50:54.472Z,0
2017-09-16T18:56:00.214Z,0
2017-09-16T19:01:05.951Z,0
2017-09-16T19:06:11.345Z,0
2017-09-16T19:11:16.411Z,0
2017-09-16T19:16:22.146Z,0
2017-09-16T19:21:26.866Z,0
2017-09-16T19:26:31.933Z,0
2017-09-16T19:31:37.003Z,0
2017-09-16T19:36:41.402Z,0
2017-09-16T19:41:46.130Z,0
2017-09-16T19:46:51.536Z,0
2017-09-16T19:51:57.272Z,0
2017-09-16T19:57:02.679Z,0
2017-09-16T20:02:08.750Z,0
2017-09-16T20:07:13.145Z,0
2017-09-16T20:12:17.552Z,0
2017-09-16T20:17:22.973Z,0
2017-09-16T20:22:28.042Z,0
2017-09-16T20:27:33.440Z,0
2017-09-16T20:32:38.842Z,0
2017-09-16T20:37:44.251Z,0
2017-09-16T20:42:49.978Z,0
2017-09-16T20:47:55.051Z,0
2017-09-16T20:53:00.118Z,0
2017-09-16T20:58:04.847Z,0
2017-09-16T21:03:09.913Z,0
2017-09-16T21:08:15.675Z,0
2017-09-16T21:13:20.046Z,0
2017-09-16T21:18:25.780Z,0
2017-09-16T21:23:31.190Z,0
2017-09-16T21:28:36.924Z,0
2017-09-16T21:33:42.318Z,0
2017-09-16T21:38:48.383Z,0
2017-09-16T21:43:53.789Z,0
2017-09-16T21:48:59.183Z,0
2017-09-16T21:54:04.242Z,0
2017-09-16T21:59:09.980Z,0
2017-09-16T22:04:14.713Z,0
2017-09-16T22:09:19.638Z,0
2017-09-16T22:14:24.370Z,0
2017-09-16T22:19:29.767Z,0
2017-09-16T22:24:35.494Z,0
2017-09-16T22:29:40.223Z,0
2017-09-16T22:34:45.292Z,0
2017-09-16T22:39:50.361Z,0
2017-09-16T22:44:55.141Z,0
2017-09-16T22:50:00.206Z,0
2017-09-16T22:55:05.620Z,0
2017-09-16T23:00:10.005Z,0
2017-09-16T23:05:14.727Z,0
2017-09-16T23:10:19.117Z,0
2017-09-16T23:15:24.178Z,0
2017-09-16T23:20:29.572Z,0
2017-09-16T23:25:34.970Z,0
2017-09-16T23:30:40.026Z,0
2017-09-16T23:35:45.418Z,0
2017-09-16T23:40:51.151Z,0
2017-09-16T23:45:56.884Z,0
2017-09-16T23:51:02.636Z,0
2017-09-16T23:56:07.704Z,0
